Aviation Digital Data Service (ADDS)

Output produced by METARs form (1533 UTC 15 November 2018)
found at http://aviationweather.gov/metar/data/
 
METAR text: UBBY 151500Z 01004KT 0200 R33/0600 FG VV002 07/07 Q1024 R33/////// NOSIG RMK MT OBSC
Conditions at: UBBY (ZAKATALY , AZ) observed 1500 UTC 15 November 2018
Temperature: 7.0°C (45°F)
Dewpoint: 7.0°C (45°F) [RH = 100%]
Pressure (altimeter): 30.24 inches Hg (1024.0 mb)
Winds: from the N (10 degrees) at 5 MPH (4 knots; 2.1 m/s)
Visibility: 0.12 miles (0.19 km)
Ceiling: indefinite ceiling with vertical visibility of 200 feet AGL
Clouds: obscured sky
Weather: FG  (fog)

Forecast for: UBBY (ZAKATALY , AZ)
Text: TAF UBBY 151400Z 1515/1524 VRB02KT 1000 BR SCT004 OVC020
Forecast period: 1500 UTC 15 November 2018 to 0000 UTC 16 November 2018
Forecast type: FROM: standard forecast or significant change
Winds: variable direction winds at 2 MPH (2 knots; 1.0 m/s)
Visibility: 0.62 miles (1.00 km)
Ceiling: 2000 feet AGL
Clouds: scattered clouds at 400 feet AGL
overcast cloud deck at 2000 feet AGL
Weather: BR  (mist)
Text: TEMPO 1518/1522 0800 DZ FG VV001
Forecast period: 1800 to 2200 UTC 15 November 2018
Forecast type: TEMPORARY: The following changes expected for less than half the time period
Visibility: 0.50 miles (0.80 km)
Ceiling: indefinite ceiling with vertical visibility of 100 feet AGL
Clouds: obscured sky
Weather: DZ FG  (moderate drizzle, fog)